Seastreak Highlands — WDE4031 — position and weather

sailwx.info

Track history (hours):
 
Tides and Currents Weather Stations Pressure Air Temp Water Temp Dewpoint Dewpoint Depression Visibility Wind Speed Wind Dir Waves Ship Positions

Seastreak Highlands

Owner: Seastreak llc, atlantic highlands, NJ. More information available from US FCC via Universal Licensing System and Coast Guard Vessel Documentation Center.

Last reported at 2018-Feb-19 23:07 UTC. Time now 2018-Feb-20 09:50 UTC.
Position N 40°25' W 074°02'.

Length 44 m.

Type: High speed craft. MMSI: 367347670.

Date/timePositionNaut miles runAvg speedWind from/ knotsBaromVisibWave heightAir tempDewpointWater temp
2018-Feb-19 23:07N 40°25' W 074°02'2 2.4
2018-Feb-19 22:22N 40°25' W 073°60'0 0.1
2018-Feb-19 21:56N 40°25' W 073°60'1227.1
2018-Feb-19 21:29N 40°36' W 074°02'612.0
2018-Feb-19 21:00N 40°42' W 074°00'1 1.5
2018-Feb-19 20:30N 40°41' W 074°01'1427.6
2018-Feb-19 20:00N 40°28' W 074°01'3 4.8
2018-Feb-19 19:29N 40°25' W 074°02'1121.5
2018-Feb-19 19:00N 40°36' W 074°02'612.8
2018-Feb-19 18:29N 40°42' W 074°00'1 2.2
2018-Feb-19 18:00N 40°41' W 074°01'1426.3
2018-Feb-19 17:29N 40°27' W 074°01'3 4.5
2018-Feb-19 16:52N 40°30' W 074°02'1028.0
2018-Feb-19 16:30N 40°40' W 074°01'5 9.9
2018-Feb-19 16:00N 40°44' W 073°58'714.8
2018-Feb-19 15:30N 40°38' W 074°03'1320.1
2018-Feb-19 14:52N 40°25' W 074°02'0 0.0
2018-Feb-19 14:29N 40°25' W 074°02'0 0.0
2018-Feb-19 14:00N 40°25' W 074°02'  
2018-Feb-17 00:59N 40°25' W 074°02'2 3.7
2018-Feb-17 00:29N 40°25' W 073°60'1 1.4
2018-Feb-17 00:00N 40°25' W 074°00'1122.3
2018-Feb-16 23:30N 40°36' W 074°03'917.9
2018-Feb-16 22:59N 40°45' W 073°58'919.1
2018-Feb-16 22:30N 40°36' W 074°03'1217.2
2018-Feb-16 21:50N 40°25' W 073°60'1233.3
2018-Feb-16 21:29N 40°36' W 074°03'613.1
2018-Feb-16 21:00N 40°42' W 074°00'2 3.8
2018-Feb-16 20:31N 40°43' W 073°58'1529.1
2018-Feb-16 20:00N 40°29' W 074°02'4 8.9
2018-Feb-16 19:30N 40°25' W 073°60'0 0.1
2018-Feb-16 18:46N 40°25' W 073°60'2 6.8
2018-Feb-16 18:30N 40°25' W 074°02'0 0.0
2018-Feb-16 18:00N 40°25' W 074°02'0 0.0
2018-Feb-16 17:30N 40°25' W 074°02'0 0.0
2018-Feb-16 17:00N 40°25' W 074°02'0 0.0
2018-Feb-16 16:25N 40°25' W 074°02'0 0.0
2018-Feb-16 16:00N 40°25' W 074°02'0 0.0
2018-Feb-16 15:30N 40°25' W 074°02'0 0.0
2018-Feb-16 15:00N 40°25' W 074°02'2 3.3
2018-Feb-16 14:29N 40°27' W 074°02'1531.0
2018-Feb-16 14:01N 40°42' W 074°01'4 7.5
2018-Feb-16 13:30N 40°45' W 073°58'5 9.9
2018-Feb-16 13:00N 40°40' W 074°01'1521.9
2018-Feb-16 12:19N 40°25' W 074°02'0 0.0
2018-Feb-16 12:00N 40°25' W 074°02'0 0.0
2018-Feb-16 00:08N 40°25' W 074°02'2 9.2
2018-Feb-15 23:56N 40°25' W 073°60'1329.3
2018-Feb-15 23:30N 40°37' W 074°03'816.4
2018-Feb-15 23:00N 40°45' W 073°58'714.1
2018-Feb-15 22:30N 40°38' W 074°02'1325.4
2018-Feb-15 21:59N 40°25' W 074°00'1021.3
2018-Feb-15 21:30N 40°35' W 074°03'815.4
2018-Feb-15 21:00N 40°43' W 073°59'0 0.2
2018-Feb-15 20:31N 40°42' W 073°59'1728.5
2018-Feb-15 19:56N 40°26' W 074°01'2 3.8
2018-Feb-15 19:30N 40°25' W 073°60'2 3.7
2018-Feb-15 19:00N 40°25' W 074°02'0 0.0
2018-Feb-15 18:30N 40°25' W 074°02'0 0.0
2018-Feb-15 17:58N 40°25' W 074°02'0 0.0
2018-Feb-15 17:30N 40°25' W 074°02'0 0.0
2018-Feb-15 16:54N 40°25' W 074°02'0 0.0
2018-Feb-15 16:15N 40°25' W 074°02'0 0.0
2018-Feb-15 15:58N 40°25' W 074°02'0 0.0
2018-Feb-15 15:30N 40°25' W 074°02'0 0.0
2018-Feb-15 15:00N 40°25' W 074°02'1113.6
2018-Feb-15 14:13N 40°36' W 074°03'628.8
2018-Feb-15 14:01N 40°42' W 074°01'4 6.9
2018-Feb-15 13:30N 40°45' W 073°58'510.0
2018-Feb-15 13:00N 40°40' W 074°01'1524.7
2018-Feb-15 12:24N 40°25' W 074°02'0 0.0
2018-Feb-15 12:00N 40°25' W 074°02'0 0.0
2018-Feb-15 11:28N 40°25' W 074°02'0 0.0
2018-Feb-15 00:09N 40°25' W 074°02'2 7.5
2018-Feb-14 23:56N 40°25' W 073°60'1330.5
2018-Feb-14 23:30N 40°38' W 074°03'815.2
2018-Feb-14 23:00N 40°45' W 073°58'816.8
2018-Feb-14 22:31N 40°37' W 074°03'1321.9
2018-Feb-14 21:55N 40°25' W 073°60'1227.2
2018-Feb-14 21:30N 40°36' W 074°03'714.9
2018-Feb-14 21:00N 40°43' W 073°59'0 0.5
2018-Feb-14 20:31N 40°43' W 073°58'1529.3
2018-Feb-14 20:00N 40°28' W 074°02'4 1.4
2018-Feb-14 17:19N 40°25' W 073°60'510.5
2018-Feb-14 16:53N 40°29' W 074°01'1233.4
2018-Feb-14 16:31N 40°41' W 074°02'3 6.7
2018-Feb-14 16:01N 40°43' W 073°58'510.6
2018-Feb-14 15:31N 40°39' W 074°03'1427.0
2018-Feb-14 14:59N 40°25' W 074°02'3 5.1
2018-Feb-14 14:26N 40°28' W 074°02'1433.1
2018-Feb-14 14:01N 40°42' W 074°01'4 6.9
2018-Feb-14 13:30N 40°45' W 073°58'510.6
2018-Feb-14 13:01N 40°41' W 074°02'1527.7
2018-Feb-14 12:27N 40°25' W 074°02'0 0.0
2018-Feb-14 12:00N 40°25' W 074°02'0 0.0
2018-Feb-14 11:30N 40°25' W 074°02'0 0.0
2018-Feb-14 00:09N 40°25' W 074°02'2 9.8
2018-Feb-13 23:58N 40°25' W 073°60'1225.8
2018-Feb-13 23:30N 40°36' W 074°03'917.6
2018-Feb-13 23:00N 40°45' W 073°58'918.0
2018-Feb-13 22:30N 40°36' W 074°03'1224.3
2018-Feb-13 22:00N 40°25' W 073°60'1222.8
2018-Feb-13 21:30N 40°36' W 074°03'815.6
2018-Feb-13 21:01N 40°43' W 073°58'0 0.9
2018-Feb-13 20:30N 40°43' W 073°59'1529.4
2018-Feb-13 19:59N 40°27' W 074°01'3 1.5
2018-Feb-13 17:56N 40°25' W 073°60'0 0.0
2018-Feb-13 17:29N 40°25' W 073°60'0 0.0
2018-Feb-13 15:19N 40°25' W 073°60'0 0.1
2018-Feb-13 14:54N 40°25' W 073°60'2 4.7
2018-Feb-13 14:30N 40°25' W 074°02'1633.5
2018-Feb-13 14:00N 40°42' W 074°01'4 7.5
2018-Feb-13 13:30N 40°45' W 073°58'611.8
2018-Feb-13 13:01N 40°39' W 074°01'1425.5
2018-Feb-13 12:27N 40°25' W 074°02'0 0.0
2018-Feb-13 11:57N 40°25' W 074°02'0 0.0
2018-Feb-13 11:24N 40°25' W 074°02'0 0.0
2018-Feb-13 00:16N 40°25' W 074°02'2 6.5
2018-Feb-13 00:00N 40°25' W 073°60'1223.4
2018-Feb-12 23:30N 40°36' W 074°03'918.2
2018-Feb-12 23:00N 40°45' W 073°58'816.4
2018-Feb-12 22:31N 40°37' W 074°03'1224.1
2018-Feb-12 22:00N 40°25' W 074°01'1121.2
2018-Feb-12 21:30N 40°36' W 074°03'714.5
2018-Feb-12 21:01N 40°43' W 073°59'1 2.9
2018-Feb-12 20:31N 40°42' W 074°00'1527.4
2018-Feb-12 19:58N 40°27' W 074°01'2 5.4
2018-Feb-12 19:30N 40°25' W 073°60'0 0.0
2018-Feb-12 18:58N 40°25' W 073°60'2 3.9
2018-Feb-12 18:29N 40°25' W 074°02'0 0.0
2018-Feb-12 17:59N 40°25' W 074°02'0 0.0
2018-Feb-12 17:30N 40°25' W 074°02'0 0.0
2018-Feb-12 17:00N 40°25' W 074°02'0 0.0
2018-Feb-12 16:30N 40°25' W 074°02'0 0.0
2018-Feb-12 16:00N 40°25' W 074°02'0 0.0
2018-Feb-12 15:30N 40°25' W 074°02'0 0.0
2018-Feb-12 14:58N 40°25' W 074°02'1 2.1
2018-Feb-12 14:29N 40°26' W 074°02'1532.4
2018-Feb-12 14:01N 40°42' W 074°01'3 6.7
2018-Feb-12 13:30N 40°44' W 073°58'713.3
2018-Feb-12 13:01N 40°38' W 074°03'1325.6
2018-Feb-12 12:30N 40°25' W 074°02'0 0.0
2018-Feb-10 23:18N 40°25' W 074°02'2 0.2
2018-Feb-10 14:19N 40°25' W 073°60'2 0.1
2018-Feb-10 00:52N 40°25' W 074°02'2 4.3
2018-Feb-10 00:26N 40°25' W 073°60'0 0.1
2018-Feb-09 23:59N 40°25' W 073°60'1124.0
2018-Feb-09 23:30N 40°36' W 074°03'  
Track history (hours):
 
Tides and Currents Weather Stations Pressure Air Temp Water Temp Dewpoint Dewpoint Depression Visibility Wind Speed Wind Dir Waves Ship Positions

Seastreak Highlands

Owner: Seastreak llc, atlantic highlands, NJ. More information available from US FCC via Universal Licensing System and Coast Guard Vessel Documentation Center.

Last reported at 2018-Feb-19 23:07 UTC. Time now 2018-Feb-20 09:50 UTC.
Position N 40°25' W 074°02'.

Length 44 m.

Type: High speed craft. MMSI: 367347670.

Date/timePositionNaut miles runAvg speedWind from/ knotsBaromVisibWave heightAir tempDewpointWater temp
2018-Feb-19 23:07N 40°25' W 074°02'2 2.4
2018-Feb-19 22:22N 40°25' W 073°60'0 0.1
2018-Feb-19 21:56N 40°25' W 073°60'1227.1
2018-Feb-19 21:29N 40°36' W 074°02'612.0
2018-Feb-19 21:00N 40°42' W 074°00'1 1.5
2018-Feb-19 20:30N 40°41' W 074°01'1427.6
2018-Feb-19 20:00N 40°28' W 074°01'3 4.8
2018-Feb-19 19:29N 40°25' W 074°02'1121.5
2018-Feb-19 19:00N 40°36' W 074°02'612.8
2018-Feb-19 18:29N 40°42' W 074°00'1 2.2
2018-Feb-19 18:00N 40°41' W 074°01'1426.3
2018-Feb-19 17:29N 40°27' W 074°01'3 4.5
2018-Feb-19 16:52N 40°30' W 074°02'1028.0
2018-Feb-19 16:30N 40°40' W 074°01'5 9.9
2018-Feb-19 16:00N 40°44' W 073°58'714.8
2018-Feb-19 15:30N 40°38' W 074°03'1320.1
2018-Feb-19 14:52N 40°25' W 074°02'0 0.0
2018-Feb-19 14:29N 40°25' W 074°02'0 0.0
2018-Feb-19 14:00N 40°25' W 074°02'  
2018-Feb-17 00:59N 40°25' W 074°02'2 3.7
2018-Feb-17 00:29N 40°25' W 073°60'1 1.4
2018-Feb-17 00:00N 40°25' W 074°00'1122.3
2018-Feb-16 23:30N 40°36' W 074°03'917.9
2018-Feb-16 22:59N 40°45' W 073°58'919.1
2018-Feb-16 22:30N 40°36' W 074°03'1217.2
2018-Feb-16 21:50N 40°25' W 073°60'1233.3
2018-Feb-16 21:29N 40°36' W 074°03'613.1
2018-Feb-16 21:00N 40°42' W 074°00'2 3.8
2018-Feb-16 20:31N 40°43' W 073°58'1529.1
2018-Feb-16 20:00N 40°29' W 074°02'4 8.9
2018-Feb-16 19:30N 40°25' W 073°60'0 0.1
2018-Feb-16 18:46N 40°25' W 073°60'2 6.8
2018-Feb-16 18:30N 40°25' W 074°02'0 0.0
2018-Feb-16 18:00N 40°25' W 074°02'0 0.0
2018-Feb-16 17:30N 40°25' W 074°02'0 0.0
2018-Feb-16 17:00N 40°25' W 074°02'0 0.0
2018-Feb-16 16:25N 40°25' W 074°02'0 0.0
2018-Feb-16 16:00N 40°25' W 074°02'0 0.0
2018-Feb-16 15:30N 40°25' W 074°02'0 0.0
2018-Feb-16 15:00N 40°25' W 074°02'2 3.3
2018-Feb-16 14:29N 40°27' W 074°02'1531.0
2018-Feb-16 14:01N 40°42' W 074°01'4 7.5
2018-Feb-16 13:30N 40°45' W 073°58'5 9.9
2018-Feb-16 13:00N 40°40' W 074°01'1521.9
2018-Feb-16 12:19N 40°25' W 074°02'0 0.0
2018-Feb-16 12:00N 40°25' W 074°02'0 0.0
2018-Feb-16 00:08N 40°25' W 074°02'2 9.2
2018-Feb-15 23:56N 40°25' W 073°60'1329.3
2018-Feb-15 23:30N 40°37' W 074°03'816.4
2018-Feb-15 23:00N 40°45' W 073°58'714.1
2018-Feb-15 22:30N 40°38' W 074°02'1325.4
2018-Feb-15 21:59N 40°25' W 074°00'1021.3
2018-Feb-15 21:30N 40°35' W 074°03'815.4
2018-Feb-15 21:00N 40°43' W 073°59'0 0.2
2018-Feb-15 20:31N 40°42' W 073°59'1728.5
2018-Feb-15 19:56N 40°26' W 074°01'2 3.8
2018-Feb-15 19:30N 40°25' W 073°60'2 3.7
2018-Feb-15 19:00N 40°25' W 074°02'0 0.0
2018-Feb-15 18:30N 40°25' W 074°02'0 0.0
2018-Feb-15 17:58N 40°25' W 074°02'0 0.0
2018-Feb-15 17:30N 40°25' W 074°02'0 0.0
2018-Feb-15 16:54N 40°25' W 074°02'0 0.0
2018-Feb-15 16:15N 40°25' W 074°02'0 0.0
2018-Feb-15 15:58N 40°25' W 074°02'0 0.0
2018-Feb-15 15:30N 40°25' W 074°02'0 0.0
2018-Feb-15 15:00N 40°25' W 074°02'1113.6
2018-Feb-15 14:13N 40°36' W 074°03'628.8
2018-Feb-15 14:01N 40°42' W 074°01'4 6.9
2018-Feb-15 13:30N 40°45' W 073°58'510.0
2018-Feb-15 13:00N 40°40' W 074°01'1524.7
2018-Feb-15 12:24N 40°25' W 074°02'0 0.0
2018-Feb-15 12:00N 40°25' W 074°02'0 0.0
2018-Feb-15 11:28N 40°25' W 074°02'0 0.0
2018-Feb-15 00:09N 40°25' W 074°02'2 7.5
2018-Feb-14 23:56N 40°25' W 073°60'1330.5
2018-Feb-14 23:30N 40°38' W 074°03'815.2
2018-Feb-14 23:00N 40°45' W 073°58'816.8
2018-Feb-14 22:31N 40°37' W 074°03'1321.9
2018-Feb-14 21:55N 40°25' W 073°60'1227.2
2018-Feb-14 21:30N 40°36' W 074°03'714.9
2018-Feb-14 21:00N 40°43' W 073°59'0 0.5
2018-Feb-14 20:31N 40°43' W 073°58'1529.3
2018-Feb-14 20:00N 40°28' W 074°02'4 1.4
2018-Feb-14 17:19N 40°25' W 073°60'510.5
2018-Feb-14 16:53N 40°29' W 074°01'1233.4
2018-Feb-14 16:31N 40°41' W 074°02'3 6.7
2018-Feb-14 16:01N 40°43' W 073°58'510.6
2018-Feb-14 15:31N 40°39' W 074°03'1427.0
2018-Feb-14 14:59N 40°25' W 074°02'3 5.1
2018-Feb-14 14:26N 40°28' W 074°02'1433.1
2018-Feb-14 14:01N 40°42' W 074°01'4 6.9
2018-Feb-14 13:30N 40°45' W 073°58'510.6
2018-Feb-14 13:01N 40°41' W 074°02'1527.7
2018-Feb-14 12:27N 40°25' W 074°02'0 0.0
2018-Feb-14 12:00N 40°25' W 074°02'0 0.0
2018-Feb-14 11:30N 40°25' W 074°02'0 0.0
2018-Feb-14 00:09N 40°25' W 074°02'2 9.8
2018-Feb-13 23:58N 40°25' W 073°60'1225.8
2018-Feb-13 23:30N 40°36' W 074°03'917.6
2018-Feb-13 23:00N 40°45' W 073°58'918.0
2018-Feb-13 22:30N 40°36' W 074°03'1224.3
2018-Feb-13 22:00N 40°25' W 073°60'1222.8
2018-Feb-13 21:30N 40°36' W 074°03'815.6
2018-Feb-13 21:01N 40°43' W 073°58'0 0.9
2018-Feb-13 20:30N 40°43' W 073°59'1529.4
2018-Feb-13 19:59N 40°27' W 074°01'3 1.5
2018-Feb-13 17:56N 40°25' W 073°60'0 0.0
2018-Feb-13 17:29N 40°25' W 073°60'0 0.0
2018-Feb-13 15:19N 40°25' W 073°60'0 0.1
2018-Feb-13 14:54N 40°25' W 073°60'2 4.7
2018-Feb-13 14:30N 40°25' W 074°02'1633.5
2018-Feb-13 14:00N 40°42' W 074°01'4 7.5
2018-Feb-13 13:30N 40°45' W 073°58'611.8
2018-Feb-13 13:01N 40°39' W 074°01'1425.5
2018-Feb-13 12:27N 40°25' W 074°02'0 0.0
2018-Feb-13 11:57N 40°25' W 074°02'0 0.0
2018-Feb-13 11:24N 40°25' W 074°02'0 0.0
2018-Feb-13 00:16N 40°25' W 074°02'2 6.5
2018-Feb-13 00:00N 40°25' W 073°60'1223.4
2018-Feb-12 23:30N 40°36' W 074°03'918.2
2018-Feb-12 23:00N 40°45' W 073°58'816.4
2018-Feb-12 22:31N 40°37' W 074°03'1224.1
2018-Feb-12 22:00N 40°25' W 074°01'1121.2
2018-Feb-12 21:30N 40°36' W 074°03'714.5
2018-Feb-12 21:01N 40°43' W 073°59'1 2.9
2018-Feb-12 20:31N 40°42' W 074°00'1527.4
2018-Feb-12 19:58N 40°27' W 074°01'2 5.4
2018-Feb-12 19:30N 40°25' W 073°60'0 0.0
2018-Feb-12 18:58N 40°25' W 073°60'2 3.9
2018-Feb-12 18:29N 40°25' W 074°02'0 0.0
2018-Feb-12 17:59N 40°25' W 074°02'0 0.0
2018-Feb-12 17:30N 40°25' W 074°02'0 0.0
2018-Feb-12 17:00N 40°25' W 074°02'0 0.0
2018-Feb-12 16:30N 40°25' W 074°02'0 0.0
2018-Feb-12 16:00N 40°25' W 074°02'0 0.0
2018-Feb-12 15:30N 40°25' W 074°02'0 0.0
2018-Feb-12 14:58N 40°25' W 074°02'1 2.1
2018-Feb-12 14:29N 40°26' W 074°02'1532.4
2018-Feb-12 14:01N 40°42' W 074°01'3 6.7
2018-Feb-12 13:30N 40°44' W 073°58'713.3
2018-Feb-12 13:01N 40°38' W 074°03'1325.6
2018-Feb-12 12:30N 40°25' W 074°02'0 0.0
2018-Feb-10 23:18N 40°25' W 074°02'2 0.2
2018-Feb-10 14:19N 40°25' W 073°60'2 0.1
2018-Feb-10 00:52N 40°25' W 074°02'2 4.3
2018-Feb-10 00:26N 40°25' W 073°60'0 0.1
2018-Feb-09 23:59N 40°25' W 073°60'1124.0
2018-Feb-09 23:30N 40°36' W 074°03'  

Dump ship's entire track history